ICAIG LINL-LIBR
Flight info
| Callsign | ICAIG |
|---|---|
| Flight time | 0h 19m |
| Altitude | 1500 |
| Route | LECCE BRINDISI |
| Aircraft | P28R/L-SDG/SB |
Departure
| Time | 2026-05-06 21:27 |
|---|---|
| Airport | Lecce-San Cataldo Lepore Airfield (LINL) |
Arrival
| Time | 2026-05-06 21:46 |
|---|---|
| Airport | Brindisi Airport (LIBR) |
| Time | Latitude | Longitude | Altitude | Speed | Heading |
|---|---|---|---|---|---|
| 2026-05-06 21:22 | 40.35490 | 18.23350 | 127 ft | 0 kts | 69° |
| 2026-05-06 21:24 | 40.35469 | 18.23343 | 124 ft | 14 kts | 240° |
| 2026-05-06 21:24 | 40.35384 | 18.23376 | 130 ft | 14 kts | 160° |
| 2026-05-06 21:24 | 40.35299 | 18.23390 | 134 ft | 8 kts | 258° |
| 2026-05-06 21:25 | 40.35366 | 18.23373 | 130 ft | 15 kts | 334° |
| 2026-05-06 21:25 | 40.35420 | 18.23341 | 127 ft | 0 kts | 337° |
| 2026-05-06 21:26 | 40.35423 | 18.23339 | 126 ft | 5 kts | 338° |
| 2026-05-06 21:26 | 40.35617 | 18.23226 | 126 ft | 56 kts | 335° |
| 2026-05-06 21:26 | 40.36083 | 18.22921 | 171 ft | 83 kts | 327° |
| 2026-05-06 21:27 | 40.36611 | 18.22564 | 324 ft | 85 kts | 319° |
| 2026-05-06 21:27 | 40.37046 | 18.21998 | 509 ft | 88 kts | 295° |
| 2026-05-06 21:27 | 40.37288 | 18.21275 | 766 ft | 86 kts | 278° |
| 2026-05-06 21:27 | 40.37446 | 18.20543 | 983 ft | 86 kts | 275° |
| 2026-05-06 21:28 | 40.37745 | 18.19818 | 1138 ft | 97 kts | 291° |
| 2026-05-06 21:28 | 40.38135 | 18.19110 | 1352 ft | 96 kts | 292° |
| 2026-05-06 21:28 | 40.38517 | 18.18374 | 1465 ft | 102 kts | 285° |
| 2026-05-06 21:28 | 40.38869 | 18.17510 | 1508 ft | 113 kts | 284° |
| 2026-05-06 21:29 | 40.39276 | 18.16584 | 1543 ft | 122 kts | 289° |
| 2026-05-06 21:29 | 40.39733 | 18.15624 | 1577 ft | 126 kts | 292° |
| 2026-05-06 21:29 | 40.40278 | 18.14702 | 1630 ft | 130 kts | 300° |
| 2026-05-06 21:29 | 40.40865 | 18.13770 | 1627 ft | 134 kts | 300° |
| 2026-05-06 21:30 | 40.41484 | 18.12813 | 1576 ft | 141 kts | 302° |
| 2026-05-06 21:30 | 40.42143 | 18.11840 | 1501 ft | 144 kts | 302° |
| 2026-05-06 21:30 | 40.42768 | 18.10831 | 1500 ft | 141 kts | 300° |
| 2026-05-06 21:30 | 40.43394 | 18.09849 | 1509 ft | 139 kts | 301° |
| 2026-05-06 21:31 | 40.44000 | 18.08852 | 1462 ft | 140 kts | 298° |
| 2026-05-06 21:31 | 40.44581 | 18.07830 | 1434 ft | 139 kts | 297° |
| 2026-05-06 21:31 | 40.45204 | 18.06873 | 1484 ft | 137 kts | 307° |
| 2026-05-06 21:31 | 40.45950 | 18.06096 | 1468 ft | 141 kts | 317° |
| 2026-05-06 21:32 | 40.46779 | 18.05405 | 1462 ft | 143 kts | 322° |
| 2026-05-06 21:32 | 40.48567 | 18.04218 | 1448 ft | 145 kts | 332° |
| 2026-05-06 21:32 | 40.49498 | 18.03694 | 1435 ft | 146 kts | 331° |
| 2026-05-06 21:33 | 40.50433 | 18.03152 | 1426 ft | 146 kts | 330° |
| 2026-05-06 21:33 | 40.51357 | 18.02586 | 1420 ft | 147 kts | 329° |
| 2026-05-06 21:33 | 40.52273 | 18.02002 | 1418 ft | 145 kts | 329° |
| 2026-05-06 21:33 | 40.53176 | 18.01417 | 1397 ft | 146 kts | 328° |
| 2026-05-06 21:34 | 40.54063 | 18.00829 | 1479 ft | 139 kts | 326° |
| 2026-05-06 21:34 | 40.54931 | 18.00214 | 1483 ft | 141 kts | 324° |
| 2026-05-06 21:34 | 40.55791 | 17.99582 | 1467 ft | 144 kts | 324° |
| 2026-05-06 21:34 | 40.56668 | 17.98951 | 1485 ft | 144 kts | 325° |
| 2026-05-06 21:35 | 40.57549 | 17.98334 | 1518 ft | 143 kts | 325° |
| 2026-05-06 21:35 | 40.58424 | 17.97702 | 1526 ft | 144 kts | 324° |
| 2026-05-06 21:35 | 40.59312 | 17.97077 | 1535 ft | 145 kts | 325° |
| 2026-05-06 21:35 | 40.60173 | 17.96415 | 1518 ft | 146 kts | 319° |
| 2026-05-06 21:36 | 40.60948 | 17.95593 | 1518 ft | 141 kts | 307° |
| 2026-05-06 21:36 | 40.61564 | 17.94618 | 1529 ft | 136 kts | 296° |
| 2026-05-06 21:36 | 40.62089 | 17.93594 | 1529 ft | 135 kts | 292° |
| 2026-05-06 21:36 | 40.62558 | 17.92540 | 1550 ft | 133 kts | 289° |
| 2026-05-06 21:37 | 40.62980 | 17.91459 | 1568 ft | 132 kts | 284° |
| 2026-05-06 21:37 | 40.63362 | 17.90366 | 1597 ft | 131 kts | 283° |
| 2026-05-06 21:37 | 40.63718 | 17.89277 | 1660 ft | 127 kts | 281° |
| 2026-05-06 21:37 | 40.64049 | 17.88210 | 1669 ft | 126 kts | 280° |
| 2026-05-06 21:38 | 40.64362 | 17.87128 | 1623 ft | 130 kts | 279° |
| 2026-05-06 21:38 | 40.64660 | 17.85984 | 1567 ft | 133 kts | 277° |
| 2026-05-06 21:38 | 40.64907 | 17.84800 | 1538 ft | 135 kts | 274° |
| 2026-05-06 21:38 | 40.65132 | 17.83607 | 1546 ft | 134 kts | 275° |
| 2026-05-06 21:39 | 40.65586 | 17.82515 | 1606 ft | 141 kts | 305° |
| 2026-05-06 21:39 | 40.66386 | 17.81751 | 1649 ft | 146 kts | 322° |
| 2026-05-06 21:39 | 40.67262 | 17.81051 | 1626 ft | 150 kts | 323° |
| 2026-05-06 21:39 | 40.68150 | 17.80348 | 1658 ft | 147 kts | 322° |
| 2026-05-06 21:40 | 40.69021 | 17.79632 | 1640 ft | 148 kts | 321° |
| 2026-05-06 21:40 | 40.69904 | 17.78917 | 1601 ft | 148 kts | 322° |
| 2026-05-06 21:40 | 40.70761 | 17.78174 | 1533 ft | 151 kts | 322° |
| 2026-05-06 21:40 | 40.71715 | 17.77636 | 1550 ft | 150 kts | 341° |
| 2026-05-06 21:41 | 40.72750 | 17.77683 | 1490 ft | 150 kts | 20° |
| 2026-05-06 21:41 | 40.73554 | 17.78452 | 1440 ft | 140 kts | 64° |
| 2026-05-06 21:41 | 40.73863 | 17.79586 | 1455 ft | 126 kts | 91° |
| 2026-05-06 21:41 | 40.74005 | 17.80744 | 1367 ft | 129 kts | 95° |
| 2026-05-06 21:42 | 40.74095 | 17.81921 | 1283 ft | 130 kts | 96° |
| 2026-05-06 21:42 | 40.74156 | 17.83090 | 1225 ft | 126 kts | 96° |
| 2026-05-06 21:42 | 40.74157 | 17.84249 | 1102 ft | 126 kts | 102° |
| 2026-05-06 21:42 | 40.73963 | 17.85323 | 1065 ft | 114 kts | 127° |
| 2026-05-06 21:43 | 40.73450 | 17.86010 | 1100 ft | 101 kts | 150° |
| 2026-05-06 21:43 | 40.72861 | 17.86530 | 1024 ft | 105 kts | 150° |
| 2026-05-06 21:43 | 40.72309 | 17.87133 | 1044 ft | 101 kts | 147° |
| 2026-05-06 21:43 | 40.71748 | 17.87696 | 1019 ft | 101 kts | 150° |
| 2026-05-06 21:44 | 40.71169 | 17.88251 | 970 ft | 105 kts | 148° |
| 2026-05-06 21:44 | 40.70644 | 17.88961 | 923 ft | 109 kts | 138° |
| 2026-05-06 21:44 | 40.70096 | 17.89673 | 814 ft | 112 kts | 141° |
| 2026-05-06 21:44 | 40.69518 | 17.90313 | 653 ft | 105 kts | 146° |
| 2026-05-06 21:45 | 40.68992 | 17.90874 | 423 ft | 87 kts | 144° |
| 2026-05-06 21:45 | 40.68558 | 17.91435 | 342 ft | 89 kts | 140° |
| 2026-05-06 21:45 | 40.68114 | 17.91942 | 239 ft | 80 kts | 148° |
| 2026-05-06 21:45 | 40.67719 | 17.92430 | 152 ft | 73 kts | 136° |
| 2026-05-06 21:46 | 40.67354 | 17.92871 | 71 ft | 69 kts | 145° |
| 2026-05-06 21:46 | 40.67019 | 17.93251 | 36 ft | 54 kts | 138° |
| 2026-05-06 21:46 | 40.66802 | 17.93518 | 33 ft | 35 kts | 137° |
| 2026-05-06 21:46 | 40.66650 | 17.93698 | 34 ft | 26 kts | 145° |
| 2026-05-06 21:47 | 40.66508 | 17.93870 | 35 ft | 30 kts | 133° |
| 2026-05-06 21:47 | 40.66330 | 17.94087 | 35 ft | 39 kts | 136° |
| 2026-05-06 21:47 | 40.66133 | 17.94331 | 33 ft | 39 kts | 137° |
| 2026-05-06 21:47 | 40.65958 | 17.94540 | 33 ft | 17 kts | 161° |
| 2026-05-06 21:48 | 40.65874 | 17.94439 | 36 ft | 20 kts | 231° |
| 2026-05-06 21:48 | 40.65801 | 17.94316 | 37 ft | 9 kts | 233° |
| 2026-05-06 21:48 | 40.65816 | 17.94279 | 37 ft | 9 kts | 321° |
| 2026-05-06 21:48 | 40.65870 | 17.94251 | 37 ft | 7 kts | 333° |
| 2026-05-06 21:49 | 40.65891 | 17.94228 | 37 ft | 0 kts | 319° |
| 2026-05-06 21:51 | 40.65891 | 17.94229 | 37 ft | 0 kts | 319° |
| 2026-05-06 21:53 | 40.65890 | 17.94229 | 37 ft | 0 kts | 319° |
| 2026-05-06 21:58 | 40.65890 | 17.94230 | 37 ft | 0 kts | 319° |
| 2026-05-06 22:00 | 40.65889 | 17.94230 | 37 ft | 0 kts | 319° |